Time;durP1;ratioP1;P1;durP2;ratioP2;P2;SDS_P1;SDS_P2;PMS_P1;PMS_P2;Temp;Humidity;BMP_temperature;BMP_pressure;BME280_temperature;BME280_humidity;BME280_pressure;Samples;Min_cycle;Max_cycle;Signal;HPM_P1;HPM_P2
2023/11/13 00:02:13;;;;;;;10.80;5.07;;;;;;;8.79;92.71;100149.22;5027464;28;20042;-72
2023/11/13 00:04:39;;;;;;;10.35;4.63;;;;;;;8.78;93.02;100136.16;5027643;28;20458;-72
2023/11/13 00:07:04;;;;;;;8.05;4.32;;;;;;;8.78;92.86;100130.78;5030095;28;20021;-73
2023/11/13 00:09:31;;;;;;;12.80;5.28;;;;;;;8.79;92.57;100133.13;5029170;28;20021;-72
2023/11/13 00:11:58;;;;;;;11.32;5.43;;;;;;;8.76;92.09;100133.84;5028304;28;20068;-72
2023/11/13 00:14:23;;;;;;;8.95;4.53;;;;;;;8.69;92.26;100128.31;5028399;28;20046;-72
2023/11/13 00:16:49;;;;;;;11.02;4.82;;;;;;;8.65;92.39;100127.47;5029655;28;20108;-72
2023/11/13 00:19:15;;;;;;;11.18;5.07;;;;;;;8.64;91.94;100125.94;5009095;28;20505;-72
2023/11/13 00:21:41;;;;;;;8.73;4.45;;;;;;;8.65;91.80;100124.78;5022749;28;20040;-73
2023/11/13 00:24:07;;;;;;;10.63;6.07;;;;;;;8.63;91.41;100120.91;5026082;28;20029;-72
2023/11/13 00:26:32;;;;;;;9.35;4.50;;;;;;;8.57;91.83;100125.81;5021060;28;20041;-72
2023/11/13 00:28:58;;;;;;;9.30;4.97;;;;;;;8.57;91.72;100115.06;5030261;28;20035;-70
2023/11/13 00:31:23;;;;;;;13.45;5.15;;;;;;;8.57;91.48;100127.69;5009912;28;20103;-72
2023/11/13 00:33:49;;;;;;;10.57;4.15;;;;;;;8.61;91.35;100129.34;5032372;28;20041;-72
2023/11/13 00:36:16;;;;;;;8.77;4.88;;;;;;;8.57;91.68;100136.53;5027125;28;20033;-72
2023/11/13 00:38:41;;;;;;;8.68;4.53;;;;;;;8.55;91.77;100140.69;5039328;28;20029;-73
2023/11/13 00:41:11;;;;;;;10.88;4.82;;;;;;;8.56;91.81;100131.50;5028237;28;20034;-72
2023/11/13 00:43:36;;;;;;;9.95;4.93;;;;;;;8.52;91.90;100126.06;5024850;28;20436;-73
2023/11/13 00:46:02;;;;;;;10.60;4.55;;;;;;;8.52;92.53;100130.66;5022025;28;20033;-72
2023/11/13 00:48:28;;;;;;;10.95;4.85;;;;;;;8.47;92.80;100134.41;5026709;28;20044;-72
2023/11/13 00:50:54;;;;;;;9.30;4.03;;;;;;;8.45;93.66;100135.88;5027265;28;20057;-72
2023/11/13 00:53:19;;;;;;;12.57;5.18;;;;;;;8.43;93.10;100141.59;5028640;28;20088;-72
2023/11/13 00:55:45;;;;;;;12.25;5.28;;;;;;;8.49;93.29;100145.56;5031308;28;20034;-73
2023/11/13 00:58:11;;;;;;;11.35;4.07;;;;;;;8.55;92.41;100143.38;5031497;28;20035;-72
2023/11/13 01:00:36;;;;;;;10.00;4.97;;;;;;;8.52;92.59;100144.84;5037906;28;20030;-72
2023/11/13 01:03:02;;;;;;;10.90;4.85;;;;;;;8.56;92.33;100128.81;5030307;28;20028;-72
2023/11/13 01:05:27;;;;;;;8.15;4.18;;;;;;;8.47;92.66;100121.00;5036486;28;20395;-72
2023/11/13 01:07:53;;;;;;;12.98;4.38;;;;;;;8.50;92.69;100124.84;5032602;28;20499;-73
2023/11/13 01:10:19;;;;;;;8.85;4.43;;;;;;;8.41;92.61;100113.56;5031806;28;20033;-72
2023/11/13 01:12:47;;;;;;;9.70;5.25;;;;;;;8.41;92.94;100113.56;5030967;28;20022;-72
2023/11/13 01:15:12;;;;;;;10.32;4.20;;;;;;;8.38;92.38;100135.75;5031133;28;20041;-72
2023/11/13 01:17:41;;;;;;;10.60;5.38;;;;;;;8.39;92.37;100126.56;5029354;28;20509;-72
2023/11/13 01:20:08;;;;;;;11.85;4.90;;;;;;;8.33;92.46;100120.69;5032360;28;20037;-72
2023/11/13 01:22:36;;;;;;;15.05;6.95;;;;;;;8.38;91.95;100130.38;5023396;28;20025;-72
2023/11/13 01:25:03;;;;;;;10.27;5.05;;;;;;;8.43;91.55;100128.19;5015193;28;20033;-72
2023/11/13 01:27:28;;;;;;;11.55;5.25;;;;;;;8.47;91.12;100120.22;5031321;28;20041;-72
2023/11/13 01:29:54;;;;;;;7.93;3.67;;;;;;;8.36;91.65;100121.91;5015289;28;20030;-72
2023/11/13 01:32:21;;;;;;;9.50;5.35;;;;;;;8.25;92.36;100129.72;5031935;28;20044;-72
2023/11/13 01:34:46;;;;;;;8.80;4.00;;;;;;;8.23;92.58;100127.38;5032444;28;20025;-72
2023/11/13 01:37:14;;;;;;;11.68;5.25;;;;;;;8.21;92.44;100132.31;5030320;28;20516;-72
2023/11/13 01:39:39;;;;;;;10.60;4.38;;;;;;;8.24;92.06;100136.22;5032223;28;20037;-72
2023/11/13 01:42:05;;;;;;;8.25;4.50;;;;;;;8.30;92.44;100126.00;5031036;28;20037;-72
2023/11/13 01:44:33;;;;;;;8.88;4.18;;;;;;;8.21;92.72;100128.84;5028993;28;20029;-72
2023/11/13 01:46:58;;;;;;;9.07;4.38;;;;;;;8.22;92.21;100125.06;5029919;28;20405;-72
2023/11/13 01:49:24;;;;;;;12.10;5.25;;;;;;;8.18;92.73;100124.19;5030704;28;20037;-72
2023/11/13 01:51:54;;;;;;;7.90;4.50;;;;;;;8.15;92.49;100125.66;5030917;28;20036;-73
2023/11/13 01:54:22;;;;;;;5.68;3.65;;;;;;;8.13;92.45;100116.41;5049073;28;20057;-73
2023/11/13 01:56:51;;;;;;;9.18;4.32;;;;;;;8.16;92.06;100121.09;5031947;28;20029;-72
2023/11/13 01:59:17;;;;;;;8.90;4.65;;;;;;;8.14;91.58;100121.44;5030138;28;20040;-72
2023/11/13 02:01:43;;;;;;;10.85;5.32;;;;;;;8.12;92.40;100117.56;5029841;28;20529;-72
2023/11/13 02:04:09;;;;;;;13.45;5.30;;;;;;;8.09;92.31;100115.59;5030815;28;20038;-72
2023/11/13 02:06:35;;;;;;;16.58;4.70;;;;;;;8.12;92.26;100098.78;5030668;28;20033;-72
2023/11/13 02:09:00;;;;;;;9.48;4.65;;;;;;;8.08;92.06;100108.66;5029284;28;20463;-72
2023/11/13 02:11:26;;;;;;;12.40;5.15;;;;;;;8.10;92.24;100104.50;5029280;28;20041;-72
2023/11/13 02:13:55;;;;;;;10.18;4.68;;;;;;;8.11;91.78;100105.25;5035451;28;20041;-72
2023/11/13 02:16:20;;;;;;;10.65;5.47;;;;;;;8.13;91.72;100108.38;5029927;28;20052;-72
2023/11/13 02:18:48;;;;;;;7.47;3.97;;;;;;;8.08;91.80;100114.00;5027586;28;20029;-73
2023/11/13 02:21:14;;;;;;;11.30;4.55;;;;;;;7.94;92.76;100114.50;5030065;28;20194;-72
2023/11/13 02:23:39;;;;;;;13.40;5.28;;;;;;;7.89;93.08;100122.03;5031600;28;20063;-72
2023/11/13 02:26:14;;;;;;;8.45;4.35;;;;;;;7.98;93.00;100128.75;5008418;28;20087;-72
2023/11/13 02:28:41;;;;;;;9.35;4.70;;;;;;;7.95;93.13;100124.09;5031125;28;20104;-72
2023/11/13 02:31:07;;;;;;;11.18;4.97;;;;;;;7.89;93.31;100122.81;5031849;28;20037;-72
2023/11/13 02:33:36;;;;;;;12.05;5.30;;;;;;;7.99;93.16;100124.94;5022050;28;20044;-70
2023/11/13 02:36:05;;;;;;;13.75;5.18;;;;;;;7.92;93.48;100121.31;5050474;28;20025;-71
2023/11/13 02:38:30;;;;;;;12.50;5.30;;;;;;;7.91;92.85;100117.09;5028750;28;20124;-71
2023/11/13 02:40:59;;;;;;;14.75;5.03;;;;;;;7.91;92.97;100119.78;5034963;28;20048;-71
2023/11/13 02:43:27;;;;;;;12.05;5.38;;;;;;;7.91;93.42;100125.91;5029510;28;20053;-71
2023/11/13 02:45:53;;;;;;;9.60;4.65;;;;;;;7.91;92.72;100122.47;5031122;28;20033;-71
2023/11/13 02:48:19;;;;;;;9.57;4.28;;;;;;;7.82;93.60;100133.34;5029736;28;20112;-71
2023/11/13 02:50:45;;;;;;;7.07;3.85;;;;;;;7.91;93.25;100122.47;5029651;28;20128;-72
2023/11/13 02:53:11;;;;;;;9.68;4.72;;;;;;;7.91;93.18;100109.06;5029963;28;20511;-71
2023/11/13 02:55:36;;;;;;;8.77;4.05;;;;;;;7.95;93.18;100102.66;5025527;28;20058;-71
2023/11/13 02:58:02;;;;;;;12.75;4.60;;;;;;;7.95;92.88;100101.88;5026564;28;20511;-71
2023/11/13 03:00:28;;;;;;;13.77;5.05;;;;;;;7.95;92.73;100094.63;5029389;28;20485;-71
2023/11/13 03:02:54;;;;;;;11.43;5.13;;;;;;;7.96;92.67;100108.78;5029672;28;20124;-71
2023/11/13 03:05:22;;;;;;;7.97;4.43;;;;;;;7.88;93.16;100102.47;5024464;28;20162;-71
2023/11/13 03:07:48;;;;;;;10.98;4.95;;;;;;;7.75;93.51;100106.41;5028908;28;20033;-71
2023/11/13 03:10:13;;;;;;;16.05;5.75;;;;;;;7.76;93.74;100120.59;5028260;28;20431;-71
2023/11/13 03:12:41;;;;;;;10.40;5.38;;;;;;;7.76;93.21;100115.22;5027246;28;20041;-71
2023/11/13 03:15:09;;;;;;;8.75;4.30;;;;;;;7.76;93.15;100118.66;5030538;28;20033;-71
2023/11/13 03:17:35;;;;;;;9.43;5.22;;;;;;;7.79;93.27;100123.34;5022584;28;20288;-71
2023/11/13 03:20:02;;;;;;;10.82;5.43;;;;;;;7.84;92.75;100116.94;5028027;28;20107;-71
2023/11/13 03:22:28;;;;;;;8.48;4.03;;;;;;;7.83;92.72;100123.41;5025986;28;20558;-71
2023/11/13 03:24:53;;;;;;;9.18;4.35;;;;;;;7.83;92.49;100118.06;5025212;28;20284;-71
2023/11/13 03:27:19;;;;;;;7.82;4.22;;;;;;;7.78;93.21;100123.69;5026158;28;20030;-71
2023/11/13 03:29:44;;;;;;;9.43;4.90;;;;;;;7.73;93.28;100135.47;5025761;28;20052;-72
2023/11/13 03:32:10;;;;;;;12.10;5.00;;;;;;;7.78;92.86;100118.34;5023377;28;20037;-71
2023/11/13 03:34:37;;;;;;;9.27;4.63;;;;;;;7.77;92.95;100120.25;5024424;28;20329;-71
2023/11/13 03:37:02;;;;;;;9.27;4.43;;;;;;;7.80;92.81;100113.41;5026803;28;20041;-71
2023/11/13 03:39:28;;;;;;;14.70;3.63;;;;;;;7.80;93.51;100108.81;5038765;28;20044;-71
2023/11/13 03:41:53;;;;;;;10.35;4.85;;;;;;;7.78;93.01;100103.03;5027107;28;20033;-71
2023/11/13 03:44:22;;;;;;;8.65;4.63;;;;;;;7.79;93.02;100101.13;5005998;28;20048;-71
2023/11/13 03:46:48;;;;;;;12.55;4.32;;;;;;;7.76;92.63;100101.84;5039267;28;20148;-71
2023/11/13 03:49:13;;;;;;;7.97;3.95;;;;;;;7.78;92.59;100104.94;5021745;28;20183;-71
2023/11/13 03:51:39;;;;;;;8.82;5.03;;;;;;;7.73;91.98;100113.22;5021990;28;20059;-71
2023/11/13 03:54:04;;;;;;;8.82;4.13;;;;;;;7.60;91.67;100111.78;5010963;28;20033;-71
2023/11/13 03:56:30;;;;;;;9.32;4.53;;;;;;;7.65;91.41;100104.25;5023112;28;20125;-71
2023/11/13 03:58:57;;;;;;;8.15;3.88;;;;;;;7.60;91.41;100104.53;5023554;28;20079;-71
2023/11/13 04:01:22;;;;;;;8.52;4.47;;;;;;;7.59;91.20;100110.25;5026940;28;20017;-72
2023/11/13 04:03:48;;;;;;;10.15;4.88;;;;;;;7.53;90.75;100103.59;5023899;28;20514;-71
2023/11/13 04:06:14;;;;;;;9.52;4.38;;;;;;;7.51;90.56;100105.84;5023772;28;20120;-71
2023/11/13 04:08:39;;;;;;;11.02;4.93;;;;;;;7.47;90.22;100100.38;5028978;28;20033;-72
2023/11/13 04:11:05;;;;;;;9.20;5.15;;;;;;;7.46;89.90;100108.78;5030361;28;20400;-71
2023/11/13 04:13:36;;;;;;;10.52;4.45;;;;;;;7.45;89.26;100108.00;5030450;28;20534;-72
2023/11/13 04:16:03;;;;;;;9.23;4.40;;;;;;;7.39;89.34;100122.78;5029540;28;20040;-71
2023/11/13 04:18:32;;;;;;;9.60;4.63;;;;;;;7.30;89.35;100117.59;5019424;28;20049;-72
2023/11/13 04:20:58;;;;;;;12.40;3.85;;;;;;;7.32;88.87;100120.72;5026234;28;20326;-71
2023/11/13 04:23:24;;;;;;;10.73;3.42;;;;;;;7.23;88.76;100132.72;5029828;28;20029;-71
2023/11/13 04:25:53;;;;;;;8.30;4.35;;;;;;;7.22;89.34;100121.22;5030740;28;20108;-71
2023/11/13 04:28:19;;;;;;;7.82;4.10;;;;;;;7.16;89.23;100111.88;5030910;28;20124;-71
2023/11/13 04:30:46;;;;;;;7.80;3.80;;;;;;;7.13;89.08;100101.88;5033755;28;20126;-71
2023/11/13 04:33:12;;;;;;;10.32;4.40;;;;;;;7.11;89.38;100095.31;5032248;28;20029;-71
2023/11/13 04:35:38;;;;;;;7.70;3.85;;;;;;;7.07;89.63;100105.13;5032336;28;20064;-71
2023/11/13 04:38:04;;;;;;;8.18;4.13;;;;;;;7.07;89.91;100113.16;5038317;28;20056;-71
2023/11/13 04:40:29;;;;;;;8.82;3.97;;;;;;;7.11;90.44;100109.47;5033390;28;20116;-72
2023/11/13 04:42:58;;;;;;;14.20;4.95;;;;;;;7.19;90.30;100108.53;5033620;28;20113;-71
2023/11/13 04:45:23;;;;;;;8.32;4.45;;;;;;;7.19;90.58;100105.06;5032582;28;20443;-72
2023/11/13 04:47:49;;;;;;;8.50;3.97;;;;;;;7.17;90.64;100092.03;5030390;28;20053;-72
2023/11/13 04:50:14;;;;;;;11.82;5.10;;;;;;;7.20;90.37;100094.00;5032797;28;20029;-71
2023/11/13 04:52:41;;;;;;;8.90;3.97;;;;;;;7.17;90.83;100094.72;5031677;28;20037;-71
2023/11/13 04:55:09;;;;;;;7.72;2.80;;;;;;;7.19;90.87;100102.41;5027492;28;20040;-71
2023/11/13 04:57:35;;;;;;;8.82;3.85;;;;;;;7.20;90.15;100103.97;5026173;28;20039;-71
2023/11/13 05:00:01;;;;;;;9.00;3.83;;;;;;;7.22;89.65;100097.13;5030570;28;20037;-71
2023/11/13 05:02:27;;;;;;;10.63;4.05;;;;;;;7.19;89.80;100100.50;5027820;28;20443;-71
2023/11/13 05:04:53;;;;;;;9.38;4.07;;;;;;;7.14;90.07;100097.31;5031873;28;20049;-71
2023/11/13 05:07:19;;;;;;;8.60;4.47;;;;;;;7.10;89.77;100094.53;5030618;28;20037;-71
2023/11/13 05:09:45;;;;;;;7.72;3.58;;;;;;;7.12;89.87;100097.63;5054456;28;20112;-71
2023/11/13 05:12:10;;;;;;;11.20;4.53;;;;;;;7.05;89.73;100105.50;5051617;28;20079;-71
2023/11/13 05:14:39;;;;;;;7.75;3.58;;;;;;;6.99;90.31;100101.50;5031653;28;20044;-71
2023/11/13 05:17:08;;;;;;;9.95;4.20;;;;;;;7.03;90.06;100107.75;5051579;28;20489;-71
2023/11/13 05:19:34;;;;;;;7.32;2.92;;;;;;;7.11;89.62;100098.78;5030379;28;20098;-71
2023/11/13 05:22:00;;;;;;;6.57;3.80;;;;;;;7.01;90.29;100104.63;5032077;28;20121;-71
2023/11/13 05:24:26;;;;;;;10.20;4.57;;;;;;;6.96;90.75;100107.56;5031620;28;20042;-71
2023/11/13 05:26:52;;;;;;;4.97;2.88;;;;;;;6.94;90.54;100109.03;5029827;28;20040;-71
2023/11/13 05:29:18;;;;;;;4.63;2.92;;;;;;;6.87;90.66;100114.19;5036736;28;20564;-71
2023/11/13 05:31:43;;;;;;;6.35;3.65;;;;;;;6.92;90.31;100122.75;5031698;28;20034;-71
2023/11/13 05:34:09;;;;;;;6.13;3.25;;;;;;;6.88;90.05;100118.41;5030685;28;20037;-71
2023/11/13 05:36:34;;;;;;;8.07;3.80;;;;;;;6.91;89.86;100117.75;5029059;28;20045;-71
2023/11/13 05:39:00;;;;;;;9.57;3.85;;;;;;;6.91;89.15;100121.19;5027298;28;20120;-71
2023/11/13 05:41:25;;;;;;;7.72;3.95;;;;;;;6.90;89.33;100118.84;5030120;28;20040;-71
2023/11/13 05:43:54;;;;;;;6.63;3.55;;;;;;;6.91;89.02;100109.72;5029851;28;20420;-71
2023/11/13 05:46:20;;;;;;;7.20;3.30;;;;;;;6.90;88.69;100105.47;5030524;28;20037;-71
2023/11/13 05:48:46;;;;;;;8.35;3.67;;;;;;;6.84;88.80;100110.31;5026745;28;20036;-71
2023/11/13 05:51:14;;;;;;;7.93;3.85;;;;;;;6.81;88.72;100105.66;5030453;28;20026;-73
2023/11/13 05:53:40;;;;;;;10.93;4.22;;;;;;;6.84;89.29;100104.16;5031234;28;20542;-72
2023/11/13 05:56:05;;;;;;;6.35;3.35;;;;;;;6.87;89.37;100095.47;5030208;28;20037;-71
2023/11/13 05:58:34;;;;;;;7.03;3.25;;;;;;;6.86;88.93;100107.28;5032381;28;20562;-71
2023/11/13 06:01:02;;;;;;;9.48;3.47;;;;;;;6.87;89.20;100093.56;5028944;28;20022;-70
2023/11/13 06:03:28;;;;;;;9.98;4.15;;;;;;;6.77;90.06;100091.41;5050638;28;20041;-70
2023/11/13 06:05:54;;;;;;;8.05;3.72;;;;;;;6.72;89.82;100096.19;5023993;28;20455;-71
2023/11/13 06:08:19;;;;;;;6.95;3.63;;;;;;;6.74;90.20;100102.78;5010524;28;20067;-71
2023/11/13 06:10:44;;;;;;;8.45;3.35;;;;;;;6.79;90.30;100093.72;5026898;28;20025;-71
2023/11/13 06:13:12;;;;;;;6.82;3.35;;;;;;;6.83;90.23;100087.31;5029463;28;20030;-71
2023/11/13 06:15:40;;;;;;;7.05;3.28;;;;;;;6.73;90.63;100090.53;5019959;28;20067;-71
2023/11/13 06:18:07;;;;;;;9.77;3.78;;;;;;;6.66;91.29;100086.88;5030466;28;20063;-71
2023/11/13 06:20:33;;;;;;;6.45;3.25;;;;;;;6.78;90.48;100084.91;5027150;28;20048;-71
2023/11/13 06:23:00;;;;;;;4.68;2.88;;;;;;;6.60;91.43;100085.59;5029995;28;20083;-71
2023/11/13 06:25:26;;;;;;;6.43;3.10;;;;;;;6.66;91.76;100079.63;5029700;28;20071;-71
2023/11/13 06:27:53;;;;;;;5.47;3.22;;;;;;;6.73;91.08;100082.50;5028846;28;20045;-71
2023/11/13 06:30:21;;;;;;;10.15;3.45;;;;;;;6.71;90.87;100081.28;5022700;28;20522;-70
2023/11/13 06:32:48;;;;;;;5.78;3.03;;;;;;;6.79;90.50;100081.13;5025094;28;20407;-70
2023/11/13 06:35:15;;;;;;;4.75;2.42;;;;;;;6.76;90.85;100075.66;5022720;28;20069;-71
2023/11/13 06:37:41;;;;;;;6.88;2.92;;;;;;;6.78;90.52;100068.88;5022799;28;20037;-71
2023/11/13 06:40:08;;;;;;;5.50;3.20;;;;;;;6.74;90.40;100084.03;5025320;28;20646;-71
2023/11/13 06:42:33;;;;;;;6.90;2.90;;;;;;;6.75;90.88;100076.81;5021972;28;20034;-71
2023/11/13 06:44:59;;;;;;;8.93;3.45;;;;;;;6.81;90.24;100075.44;5017574;28;20075;-71
2023/11/13 06:47:24;;;;;;;4.97;2.83;;;;;;;6.78;90.30;100070.75;5023306;28;20044;-71
2023/11/13 06:49:50;;;;;;;6.22;3.08;;;;;;;6.71;90.70;100073.25;5028422;28;20040;-70
2023/11/13 06:52:15;;;;;;;4.80;2.92;;;;;;;6.61;91.76;100066.50;5025165;28;20035;-71
2023/11/13 06:54:41;;;;;;;5.35;2.55;;;;;;;6.65;91.26;100064.72;5029490;28;20564;-72
2023/11/13 06:57:07;;;;;;;2.40;2.15;;;;;;;6.55;91.15;100059.84;5030090;28;20541;-71
2023/11/13 06:59:32;;;;;;;4.88;2.42;;;;;;;6.59;91.84;100059.94;5026820;28;20431;-71
2023/11/13 07:01:58;;;;;;;4.78;2.60;;;;;;;6.52;92.29;100065.91;5028161;28;20543;-71
2023/11/13 07:04:26;;;;;;;6.80;2.78;;;;;;;6.56;92.53;100071.34;5022002;28;20136;-70
2023/11/13 07:06:53;;;;;;;3.67;2.70;;;;;;;6.57;92.50;100070.19;5026095;28;20051;-71
2023/11/13 07:09:18;;;;;;;6.57;2.53;;;;;;;6.69;92.47;100068.25;5025693;28;20060;-71
2023/11/13 07:11:47;;;;;;;6.65;3.08;;;;;;;6.77;91.43;100069.22;5022490;28;20044;-71
2023/11/13 07:14:17;;;;;;;8.30;2.22;;;;;;;6.79;91.60;100065.09;5024342;28;20404;-71
2023/11/13 07:16:44;;;;;;;4.00;2.05;;;;;;;6.64;92.13;100076.50;5026424;28;20049;-71
2023/11/13 07:19:13;;;;;;;6.13;2.35;;;;;;;6.74;92.41;100072.56;5027159;28;20053;-71
2023/11/13 07:21:41;;;;;;;3.97;2.30;;;;;;;6.87;91.85;100079.41;5029239;28;20554;-70
2023/11/13 07:24:09;;;;;;;4.07;2.00;;;;;;;6.96;90.93;100075.44;5032215;28;20215;-70
2023/11/13 07:26:35;;;;;;;8.60;2.55;;;;;;;6.92;91.26;100068.44;5027202;28;20056;-70
2023/11/13 07:29:01;;;;;;;4.93;2.70;;;;;;;6.80;92.09;100071.97;5030381;28;20037;-71
2023/11/13 07:31:27;;;;;;;4.25;1.95;;;;;;;6.85;92.64;100071.72;5027185;28;20045;-72
2023/11/13 07:33:56;;;;;;;4.18;2.15;;;;;;;6.82;92.75;100074.28;5028313;28;20810;-71
2023/11/13 07:36:26;;;;;;;4.93;2.55;;;;;;;6.91;92.46;100075.69;5029001;28;20061;-71
2023/11/13 07:38:51;;;;;;;4.97;2.75;;;;;;;6.94;92.02;100075.00;5045114;28;20439;-71
2023/11/13 07:41:17;;;;;;;5.55;2.67;;;;;;;7.04;91.78;100079.06;5024352;28;20032;-71
2023/11/13 07:43:45;;;;;;;7.18;3.05;;;;;;;7.02;91.52;100070.63;5008812;28;20049;-71
2023/11/13 07:46:14;;;;;;;4.93;2.65;;;;;;;7.16;91.27;100058.34;5029675;28;20519;-71
2023/11/13 07:48:43;;;;;;;3.40;2.47;;;;;;;7.13;91.58;100066.28;5027511;28;20238;-71
2023/11/13 07:51:08;;;;;;;11.52;2.40;;;;;;;7.12;91.74;100062.06;5028563;28;20397;-70
2023/11/13 07:53:38;;;;;;;3.63;1.85;;;;;;;7.15;92.24;100054.13;5011118;28;20033;-71
2023/11/13 07:56:04;;;;;;;4.68;1.80;;;;;;;7.17;92.14;100051.09;5028220;28;20040;-71
2023/11/13 07:58:29;;;;;;;3.83;2.17;;;;;;;7.18;92.37;100056.09;5027391;28;20029;-71
2023/11/13 08:00:55;;;;;;;4.85;2.42;;;;;;;7.20;92.67;100050.41;5029628;28;20188;-71
2023/11/13 08:03:24;;;;;;;5.05;2.78;;;;;;;7.21;92.15;100049.28;5030553;28;20042;-72
2023/11/13 08:05:50;;;;;;;4.63;2.72;;;;;;;7.23;93.02;100050.50;5027388;28;20107;-71
2023/11/13 08:08:17;;;;;;;3.47;2.22;;;;;;;7.28;93.07;100036.81;5032106;28;20036;-71
2023/11/13 08:10:46;;;;;;;3.20;2.17;;;;;;;7.30;93.65;100031.91;5031959;28;20040;-71
2023/11/13 08:13:22;;;;;;;4.65;2.65;;;;;;;7.50;93.61;100034.63;5032467;28;20060;-71
2023/11/13 08:15:50;;;;;;;2.95;1.75;;;;;;;7.53;93.79;100026.66;5029827;28;20125;-71
2023/11/13 08:18:16;;;;;;;4.68;2.15;;;;;;;7.59;93.74;100016.47;5027809;28;20041;-71
2023/11/13 08:20:43;;;;;;;4.88;2.45;;;;;;;7.73;93.34;100022.13;5031383;28;20026;-71
2023/11/13 08:23:10;;;;;;;3.38;2.15;;;;;;;7.82;92.76;100017.34;5031627;28;20029;-71
2023/11/13 08:25:37;;;;;;;5.00;2.75;;;;;;;7.73;92.65;100011.41;5031412;28;20087;-71
2023/11/13 08:28:04;;;;;;;3.38;2.45;;;;;;;7.78;92.46;100022.63;5033597;28;20029;-72
2023/11/13 08:30:32;;;;;;;3.15;2.15;;;;;;;7.81;92.06;100016.56;5007809;28;20511;-71
2023/11/13 08:33:01;;;;;;;4.15;2.38;;;;;;;7.78;92.93;100016.50;5029783;28;20063;-71
2023/11/13 08:35:26;;;;;;;3.92;2.50;;;;;;;7.82;92.51;100006.63;5029826;28;20523;-71
2023/11/13 08:37:52;;;;;;;5.35;2.22;;;;;;;7.92;92.49;99998.78;5021318;28;20068;-71
2023/11/13 08:40:24;;;;;;;2.70;1.55;;;;;;;8.06;91.65;100007.13;5028266;28;20041;-71
2023/11/13 08:42:53;;;;;;;2.35;2.15;;;;;;;8.09;91.32;99997.59;5030027;28;20108;-71
2023/11/13 08:45:24;;;;;;;5.82;2.08;;;;;;;7.99;91.27;99993.56;5028821;28;20123;-71
2023/11/13 08:47:53;;;;;;;2.15;1.55;;;;;;;8.00;90.90;99988.97;5045951;28;20543;-71
2023/11/13 08:50:21;;;;;;;3.88;2.00;;;;;;;7.98;91.35;99991.25;5036307;28;20038;-71
2023/11/13 08:52:50;;;;;;;5.45;1.55;;;;;;;8.01;90.84;99980.59;5030331;28;20099;-71
2023/11/13 08:55:20;;;;;;;2.53;1.67;;;;;;;8.04;91.16;99982.56;5029822;28;20045;-71
2023/11/13 08:57:49;;;;;;;4.70;2.38;;;;;;;8.10;91.61;99975.00;5024419;28;20064;-71
2023/11/13 09:00:20;;;;;;;2.55;1.77;;;;;;;8.22;91.90;99969.50;5022745;28;20424;-71
2023/11/13 09:02:53;;;;;;;5.07;2.00;;;;;;;8.34;90.68;99977.41;5029522;28;20038;-73
2023/11/13 09:05:20;;;;;;;2.55;1.85;;;;;;;8.48;89.58;99974.97;5030053;28;20034;-71
2023/11/13 09:07:46;;;;;;;4.22;2.13;;;;;;;8.45;89.75;99962.28;5031906;28;20040;-71
2023/11/13 09:10:16;;;;;;;4.30;2.15;;;;;;;8.45;90.73;99967.66;5032098;28;20018;-71
2023/11/13 09:12:43;;;;;;;3.00;1.88;;;;;;;8.55;90.97;99956.31;5032319;28;20041;-71
2023/11/13 09:15:13;;;;;;;2.78;1.95;;;;;;;8.60;89.88;99960.59;5030224;28;20030;-71
2023/11/13 09:17:43;;;;;;;2.85;1.80;;;;;;;8.74;89.24;99967.00;5028011;28;20088;-71
2023/11/13 09:20:19;;;;;;;2.72;1.92;;;;;;;8.64;89.37;99966.81;5033133;28;20098;-71
2023/11/13 09:22:48;;;;;;;2.03;1.63;;;;;;;8.54;88.33;99967.38;5029533;28;20116;-71
2023/11/13 09:25:17;;;;;;;4.13;2.20;;;;;;;8.52;88.79;99967.75;5031630;28;20071;-72
2023/11/13 09:27:44;;;;;;;4.90;2.03;;;;;;;8.41;89.25;99966.03;5033124;28;20091;-71
2023/11/13 09:30:11;;;;;;;4.07;2.15;;;;;;;8.41;90.03;99964.13;5048895;28;20029;-70
2023/11/13 09:32:40;;;;;;;4.70;2.25;;;;;;;8.28;90.18;99951.25;5022905;28;20049;-71
2023/11/13 09:35:17;;;;;;;5.45;2.28;;;;;;;8.40;90.05;99943.03;5031631;28;20104;-70
2023/11/13 09:37:44;;;;;;;2.17;1.42;;;;;;;8.43;89.53;99940.41;5010707;28;20029;-71
2023/11/13 09:40:14;;;;;;;2.33;1.88;;;;;;;8.40;88.73;99919.63;5026229;28;20176;-71
2023/11/13 09:42:45;;;;;;;1.75;1.40;;;;;;;8.39;89.39;99915.41;5031336;28;20042;-71
2023/11/13 09:45:15;;;;;;;;;;;;;;;8.31;89.30;99911.06;5029631;28;20048;-70
2023/11/13 09:47:44;;;;;;;2.60;1.83;;;;;;;8.17;90.27;99905.41;5026120;28;20388;-71
2023/11/13 09:50:15;;;;;;;7.28;2.15;;;;;;;8.30;89.24;99892.66;5038152;28;20034;-71
2023/11/13 09:52:52;;;;;;;3.80;1.88;;;;;;;8.30;89.89;99896.13;5030456;28;20504;-71
2023/11/13 09:55:20;;;;;;;3.58;2.15;;;;;;;8.45;89.32;99907.84;5030527;28;20053;-72
2023/11/13 09:57:51;;;;;;;2.28;1.73;;;;;;;8.62;89.51;99902.75;5032332;28;20120;-71
2023/11/13 10:00:18;;;;;;;;;;;;;;;8.78;88.78;99903.41;5031283;28;20037;-71
2023/11/13 10:02:46;;;;;;;4.35;2.08;;;;;;;8.80;88.44;99894.97;5011733;28;20319;-71
2023/11/13 10:05:17;;;;;;;3.10;2.10;;;;;;;8.81;89.65;99883.88;5027405;28;20041;-70
2023/11/13 10:07:53;;;;;;;4.07;1.52;;;;;;;8.85;90.81;99879.34;5028460;28;20413;-71
2023/11/13 10:10:24;;;;;;;3.28;1.70;;;;;;;8.99;89.97;99878.75;5028878;28;20120;-71
2023/11/13 10:12:51;;;;;;;2.90;1.95;;;;;;;9.06;89.53;99885.00;5029516;28;20408;-72
2023/11/13 10:15:29;;;;;;;3.10;1.73;;;;;;;8.98;87.75;99877.22;5025934;28;20033;-71
2023/11/13 10:17:58;;;;;;;3.08;2.30;;;;;;;9.01;88.41;99881.84;5024417;28;20523;-71
2023/11/13 10:20:26;;;;;;;4.35;2.20;;;;;;;9.15;88.84;99881.28;5028014;28;20051;-72
2023/11/13 10:23:08;;;;;;;5.00;2.25;;;;;;;9.29;88.46;99892.22;5028281;28;20033;-71
2023/11/13 10:25:47;;;;;;;3.60;1.80;;;;;;;9.42;88.13;99886.25;5027623;28;20160;-71
2023/11/13 10:28:17;;;;;;;5.35;2.50;;;;;;;9.52;88.12;99890.97;5027734;28;20075;-71
2023/11/13 10:30:59;;;;;;;3.33;1.77;;;;;;;9.62;87.52;99876.13;5031770;28;20025;-72
2023/11/13 10:33:26;;;;;;;2.80;1.67;;;;;;;9.66;87.40;99872.31;5031260;28;20539;-71
2023/11/13 10:35:53;;;;;;;3.65;2.20;;;;;;;9.64;87.80;99866.53;5036483;28;20510;-71
2023/11/13 10:38:22;;;;;;;2.72;2.10;;;;;;;9.49;86.82;99839.84;5028755;28;20831;-71
2023/11/13 10:40:59;;;;;;;2.47;1.80;;;;;;;9.53;87.33;99838.75;5025875;28;20092;-72
2023/11/13 10:43:32;;;;;;;4.40;2.05;;;;;;;9.51;86.83;99834.88;5018689;28;20045;-71
2023/11/13 10:45:59;;;;;;;3.28;1.98;;;;;;;9.47;86.81;99837.53;5029487;28;20042;-71
2023/11/13 10:48:42;;;;;;;4.75;3.15;;;;;;;9.36;86.14;99819.75;5029191;28;20041;-71
2023/11/13 10:51:10;;;;;;;4.38;2.90;;;;;;;9.24;88.00;99825.34;5024843;28;20037;-72
2023/11/13 10:53:42;;;;;;;3.25;1.95;;;;;;;9.39;88.08;99810.97;5021144;28;20041;-71
2023/11/13 10:56:13;;;;;;;3.75;2.50;;;;;;;9.50;88.13;99809.16;5013129;28;20378;-71
2023/11/13 10:58:42;;;;;;;3.28;1.48;;;;;;;9.39;88.14;99809.03;5025689;28;20048;-71
2023/11/13 11:01:10;;;;;;;4.25;2.72;;;;;;;9.49;87.87;99792.25;5030735;28;20034;-71
2023/11/13 11:03:42;;;;;;;1.88;1.65;;;;;;;9.59;87.92;99806.94;5023514;28;20108;-70
2023/11/13 11:06:14;;;;;;;4.10;2.35;;;;;;;9.65;86.79;99802.78;5024930;28;20461;-71
2023/11/13 11:08:44;;;;;;;4.78;2.30;;;;;;;9.70;86.38;99805.91;5028441;28;20064;-71
2023/11/13 11:11:12;;;;;;;4.25;2.75;;;;;;;9.66;87.01;99786.28;5029496;28;20080;-71
2023/11/13 11:13:59;;;;;;;3.80;2.03;;;;;;;9.68;87.63;99783.22;5029415;28;20036;-71
2023/11/13 11:16:35;;;;;;;3.75;2.13;;;;;;;9.72;87.32;99774.06;5026119;28;20878;-72
2023/11/13 11:19:05;;;;;;;6.35;1.95;;;;;;;9.69;87.33;99761.38;5020030;28;20034;-72
2023/11/13 11:21:40;;;;;;;3.35;2.10;;;;;;;9.68;87.54;99745.59;5025262;28;20037;-72
2023/11/13 11:24:41;;;;;;;3.70;1.85;;;;;;;9.79;87.97;99749.16;5030135;28;20116;-71
2023/11/13 11:27:07;;;;;;;4.85;2.17;;;;;;;9.88;87.32;99734.25;5004462;28;20117;-71
2023/11/13 11:29:34;;;;;;;3.78;2.50;;;;;;;9.93;87.60;99731.22;5016854;28;20045;-72
2023/11/13 11:32:20;;;;;;;2.92;1.77;;;;;;;10.02;87.20;99725.53;5027684;28;20035;-72
2023/11/13 11:34:52;;;;;;;5.97;2.70;;;;;;;9.91;87.33;99703.16;5022119;28;20110;-72
2023/11/13 11:37:19;;;;;;;2.50;1.52;;;;;;;9.92;87.25;99697.41;5027394;28;20032;-71